CFG3EY EDDL-LGIR
Flight info
| Callsign | CFG3EY |
|---|---|
| Flight time | 2h 51m |
| Altitude | 35000 |
| Route | DODEN7Z DODEN Y853 BOMBI DCT DETEV DCT DINKU M867 XERUM DCT BAVAX DCT RADIZ DCT NEMEK/N0451F370 DCT VRANA DCT PETAK DCT PINDO UL607 GIVIS T514 XAVIS |
| Aircraft | A320/M-SDE3FGHIJ1LORVWXYZ/S |
Departure
| Time | 2026-04-30 08:38 |
|---|---|
| Airport | Düsseldorf Airport (EDDL) |
Arrival
| Time | 2026-04-30 11:30 |
|---|---|
| Airport | Heraklion International Nikos Kazantzakis Airport (LGIR) |
| Time | Latitude | Longitude | Altitude | Speed | Heading |
|---|---|---|---|---|---|
| 2026-04-30 08:03 | 51.27889 | 6.76333 | 129 ft | 0 kts | 50° |
| 2026-04-30 08:30 | 51.27888 | 6.76332 | 128 ft | 2 kts | 50° |
| 2026-04-30 08:30 | 51.27871 | 6.76301 | 126 ft | 4 kts | 50° |
| 2026-04-30 08:30 | 51.27859 | 6.76276 | 123 ft | 4 kts | 56° |
| 2026-04-30 08:30 | 51.27846 | 6.76238 | 124 ft | 4 kts | 73° |
| 2026-04-30 08:31 | 51.27841 | 6.76196 | 125 ft | 4 kts | 88° |
| 2026-04-30 08:31 | 51.27841 | 6.76160 | 128 ft | 3 kts | 90° |
| 2026-04-30 08:31 | 51.27838 | 6.76118 | 128 ft | 4 kts | 70° |
| 2026-04-30 08:31 | 51.27825 | 6.76081 | 123 ft | 4 kts | 46° |
| 2026-04-30 08:32 | 51.27805 | 6.76055 | 126 ft | 4 kts | 24° |
| 2026-04-30 08:32 | 51.27780 | 6.76044 | 129 ft | 3 kts | 2° |
| 2026-04-30 08:32 | 51.27761 | 6.76043 | 125 ft | 0 kts | 1° |
| 2026-04-30 08:34 | 51.27762 | 6.76043 | 125 ft | 0 kts | 1° |
| 2026-04-30 08:34 | 51.27775 | 6.76043 | 129 ft | 4 kts | 1° |
| 2026-04-30 08:34 | 51.27812 | 6.76045 | 125 ft | 7 kts | 2° |
| 2026-04-30 08:35 | 51.27863 | 6.76047 | 128 ft | 8 kts | 1° |
| 2026-04-30 08:35 | 51.27928 | 6.76048 | 128 ft | 11 kts | 1° |
| 2026-04-30 08:35 | 51.28003 | 6.76046 | 127 ft | 12 kts | 0° |
| 2026-04-30 08:35 | 51.28092 | 6.76032 | 127 ft | 12 kts | 322° |
| 2026-04-30 08:36 | 51.28086 | 6.75931 | 127 ft | 11 kts | 234° |
| 2026-04-30 08:36 | 51.28034 | 6.75823 | 128 ft | 14 kts | 233° |
| 2026-04-30 08:36 | 51.27969 | 6.75686 | 129 ft | 16 kts | 232° |
| 2026-04-30 08:36 | 51.27903 | 6.75545 | 124 ft | 15 kts | 232° |
| 2026-04-30 08:37 | 51.27840 | 6.75414 | 124 ft | 14 kts | 236° |
| 2026-04-30 08:37 | 51.27885 | 6.75314 | 125 ft | 12 kts | 333° |
| 2026-04-30 08:37 | 51.27961 | 6.75264 | 124 ft | 11 kts | 358° |
| 2026-04-30 08:37 | 51.28034 | 6.75354 | 124 ft | 27 kts | 52° |
| 2026-04-30 08:38 | 51.28300 | 6.75912 | 127 ft | 96 kts | 52° |
| 2026-04-30 08:38 | 51.28822 | 6.77009 | 131 ft | 150 kts | 52° |
| 2026-04-30 08:38 | 51.29464 | 6.78346 | 732 ft | 149 kts | 59° |
| 2026-04-30 08:38 | 51.30084 | 6.79648 | 1502 ft | 147 kts | 58° |
| 2026-04-30 08:39 | 51.30750 | 6.81050 | 1780 ft | 170 kts | 59° |
| 2026-04-30 08:39 | 51.31505 | 6.82677 | 2045 ft | 194 kts | 59° |
| 2026-04-30 08:39 | 51.32361 | 6.84520 | 2306 ft | 219 kts | 58° |
| 2026-04-30 08:39 | 51.33322 | 6.86575 | 2719 ft | 240 kts | 59° |
| 2026-04-30 08:40 | 51.34308 | 6.88771 | 3496 ft | 244 kts | 64° |
| 2026-04-30 08:40 | 51.34972 | 6.91193 | 4347 ft | 241 kts | 79° |
| 2026-04-30 08:40 | 51.35147 | 6.93855 | 5216 ft | 243 kts | 94° |
| 2026-04-30 08:40 | 51.34912 | 6.96542 | 6043 ft | 246 kts | 99° |
| 2026-04-30 08:41 | 51.34636 | 6.99256 | 6875 ft | 249 kts | 99° |
| 2026-04-30 08:41 | 51.34361 | 7.02000 | 7641 ft | 252 kts | 99° |
| 2026-04-30 08:41 | 51.34082 | 7.04785 | 8414 ft | 255 kts | 98° |
| 2026-04-30 08:41 | 51.33798 | 7.07608 | 9215 ft | 259 kts | 98° |
| 2026-04-30 08:42 | 51.33509 | 7.10463 | 10011 ft | 262 kts | 98° |
| 2026-04-30 08:42 | 51.33199 | 7.13409 | 10459 ft | 279 kts | 101° |
| 2026-04-30 08:42 | 51.32583 | 7.16495 | 10642 ft | 304 kts | 112° |
| 2026-04-30 08:42 | 51.31480 | 7.19516 | 10889 ft | 325 kts | 124° |
| 2026-04-30 08:43 | 51.29920 | 7.22216 | 11470 ft | 335 kts | 132° |
| 2026-04-30 08:43 | 51.28247 | 7.24838 | 12128 ft | 339 kts | 132° |
| 2026-04-30 08:43 | 51.26561 | 7.27501 | 12797 ft | 343 kts | 132° |
| 2026-04-30 08:43 | 51.24860 | 7.30200 | 13449 ft | 347 kts | 131° |
| 2026-04-30 08:44 | 51.23140 | 7.32929 | 14079 ft | 351 kts | 131° |
| 2026-04-30 08:44 | 51.21396 | 7.35692 | 14657 ft | 355 kts | 132° |
| 2026-04-30 08:44 | 51.19634 | 7.38471 | 15236 ft | 359 kts | 132° |
| 2026-04-30 08:44 | 51.17849 | 7.41276 | 15815 ft | 362 kts | 132° |
| 2026-04-30 08:45 | 51.16047 | 7.44099 | 16388 ft | 365 kts | 132° |
| 2026-04-30 08:45 | 51.14219 | 7.46942 | 16955 ft | 368 kts | 132° |
| 2026-04-30 08:45 | 51.12365 | 7.49784 | 17511 ft | 372 kts | 133° |
| 2026-04-30 08:45 | 51.10486 | 7.52646 | 18065 ft | 375 kts | 133° |
| 2026-04-30 08:46 | 51.08590 | 7.55529 | 18626 ft | 379 kts | 133° |
| 2026-04-30 08:46 | 51.06681 | 7.58431 | 19107 ft | 382 kts | 133° |
| 2026-04-30 08:46 | 51.04758 | 7.61372 | 19614 ft | 384 kts | 131° |
| 2026-04-30 08:46 | 51.02855 | 7.64379 | 20101 ft | 387 kts | 130° |
| 2026-04-30 08:47 | 51.00962 | 7.67447 | 20583 ft | 390 kts | 130° |
| 2026-04-30 08:47 | 50.99064 | 7.70556 | 21051 ft | 394 kts | 130° |
| 2026-04-30 08:47 | 50.97149 | 7.73684 | 21500 ft | 397 kts | 130° |
| 2026-04-30 08:47 | 50.95213 | 7.76830 | 21936 ft | 401 kts | 130° |
| 2026-04-30 08:48 | 50.93250 | 7.79997 | 22361 ft | 404 kts | 130° |
| 2026-04-30 08:48 | 50.91267 | 7.83179 | 22776 ft | 407 kts | 130° |
| 2026-04-30 08:48 | 50.89266 | 7.86378 | 23183 ft | 410 kts | 131° |
| 2026-04-30 08:48 | 50.87249 | 7.89597 | 23587 ft | 413 kts | 131° |
| 2026-04-30 08:49 | 50.85212 | 7.92843 | 23988 ft | 416 kts | 131° |
| 2026-04-30 08:49 | 50.83169 | 7.96103 | 24333 ft | 419 kts | 130° |
| 2026-04-30 08:49 | 50.81112 | 7.99382 | 24697 ft | 421 kts | 130° |
| 2026-04-30 08:49 | 50.79041 | 8.02681 | 25040 ft | 423 kts | 130° |
| 2026-04-30 08:50 | 50.76965 | 8.05981 | 25373 ft | 424 kts | 130° |
| 2026-04-30 08:50 | 50.74878 | 8.09293 | 25693 ft | 426 kts | 130° |
| 2026-04-30 08:50 | 50.72810 | 8.12568 | 26019 ft | 428 kts | 130° |
| 2026-04-30 08:50 | 50.70675 | 8.15942 | 26344 ft | 430 kts | 130° |
| 2026-04-30 08:51 | 50.68555 | 8.19291 | 26661 ft | 432 kts | 130° |
| 2026-04-30 08:51 | 50.66458 | 8.22603 | 26974 ft | 434 kts | 130° |
| 2026-04-30 08:51 | 50.64322 | 8.25971 | 27291 ft | 435 kts | 130° |
| 2026-04-30 08:51 | 50.62176 | 8.29352 | 27632 ft | 437 kts | 130° |
| 2026-04-30 08:52 | 50.60021 | 8.32746 | 27944 ft | 439 kts | 130° |
| 2026-04-30 08:52 | 50.57860 | 8.36151 | 28227 ft | 441 kts | 130° |
| 2026-04-30 08:52 | 50.55690 | 8.39565 | 28534 ft | 442 kts | 130° |
| 2026-04-30 08:52 | 50.53507 | 8.42991 | 28774 ft | 445 kts | 130° |
| 2026-04-30 08:53 | 50.51310 | 8.46425 | 29032 ft | 446 kts | 130° |
| 2026-04-30 08:53 | 50.49102 | 8.49868 | 29285 ft | 448 kts | 130° |
| 2026-04-30 08:53 | 50.46886 | 8.53319 | 29524 ft | 450 kts | 130° |
| 2026-04-30 08:53 | 50.44663 | 8.56773 | 29759 ft | 451 kts | 130° |
| 2026-04-30 08:54 | 50.43152 | 8.59116 | 29908 ft | 452 kts | 130° |
| 2026-04-30 08:54 | 50.40912 | 8.62587 | 30135 ft | 453 kts | 130° |
| 2026-04-30 08:54 | 50.38669 | 8.66063 | 30449 ft | 453 kts | 130° |
| 2026-04-30 08:54 | 50.36435 | 8.69522 | 30729 ft | 452 kts | 130° |
| 2026-04-30 08:55 | 50.34204 | 8.72976 | 30997 ft | 451 kts | 130° |
| 2026-04-30 08:55 | 50.31978 | 8.76417 | 31263 ft | 450 kts | 130° |
| 2026-04-30 08:55 | 50.29781 | 8.79806 | 31560 ft | 448 kts | 130° |
| 2026-04-30 08:55 | 50.27565 | 8.83221 | 31848 ft | 447 kts | 130° |
| 2026-04-30 08:56 | 50.25354 | 8.86626 | 32117 ft | 446 kts | 130° |
| 2026-04-30 08:56 | 50.23149 | 8.90015 | 32390 ft | 445 kts | 130° |
| 2026-04-30 08:56 | 50.20940 | 8.93402 | 32662 ft | 444 kts | 130° |
| 2026-04-30 08:56 | 50.18738 | 8.96773 | 32934 ft | 443 kts | 130° |
| 2026-04-30 08:57 | 50.16542 | 9.00131 | 33208 ft | 442 kts | 130° |
| 2026-04-30 08:57 | 50.14347 | 9.03488 | 33475 ft | 441 kts | 130° |
| 2026-04-30 08:57 | 50.12161 | 9.06830 | 33745 ft | 440 kts | 130° |
| 2026-04-30 08:57 | 50.09975 | 9.10166 | 34016 ft | 439 kts | 130° |
| 2026-04-30 08:58 | 50.07793 | 9.13486 | 34287 ft | 438 kts | 130° |
| 2026-04-30 08:58 | 50.05610 | 9.16802 | 34550 ft | 438 kts | 130° |
| 2026-04-30 08:58 | 50.03427 | 9.20113 | 34747 ft | 438 kts | 130° |
| 2026-04-30 08:58 | 50.01242 | 9.23424 | 34944 ft | 439 kts | 130° |
| 2026-04-30 08:59 | 49.99058 | 9.26732 | 35128 ft | 439 kts | 130° |
| 2026-04-30 08:59 | 49.96868 | 9.30043 | 35330 ft | 439 kts | 130° |
| 2026-04-30 08:59 | 49.94678 | 9.33355 | 35419 ft | 440 kts | 130° |
| 2026-04-30 09:00 | 49.90282 | 9.39977 | 35437 ft | 441 kts | 130° |
| 2026-04-30 09:00 | 49.85878 | 9.46584 | 35437 ft | 440 kts | 130° |
| 2026-04-30 09:01 | 49.81476 | 9.53180 | 35434 ft | 440 kts | 130° |
| 2026-04-30 09:01 | 49.77063 | 9.59780 | 35430 ft | 441 kts | 130° |
| 2026-04-30 09:02 | 49.70459 | 9.69614 | 35423 ft | 442 kts | 130° |
| 2026-04-30 09:02 | 49.66033 | 9.76195 | 35421 ft | 442 kts | 130° |
| 2026-04-30 09:03 | 49.61600 | 9.82763 | 35413 ft | 442 kts | 130° |
| 2026-04-30 09:03 | 49.57165 | 9.89313 | 35411 ft | 442 kts | 131° |
| 2026-04-30 09:04 | 49.52724 | 9.95855 | 35436 ft | 442 kts | 130° |
| 2026-04-30 09:04 | 49.48279 | 10.02385 | 35426 ft | 442 kts | 130° |
| 2026-04-30 09:05 | 49.43824 | 10.08910 | 35419 ft | 442 kts | 130° |
| 2026-04-30 09:05 | 49.39365 | 10.15431 | 35418 ft | 442 kts | 130° |
| 2026-04-30 09:06 | 49.34901 | 10.21935 | 35422 ft | 442 kts | 130° |
| 2026-04-30 09:06 | 49.30433 | 10.28424 | 35438 ft | 443 kts | 130° |
| 2026-04-30 09:07 | 49.25960 | 10.34904 | 35459 ft | 443 kts | 130° |
| 2026-04-30 09:07 | 49.21028 | 10.40688 | 35451 ft | 453 kts | 143° |
| 2026-04-30 09:08 | 49.15607 | 10.45608 | 35437 ft | 453 kts | 143° |
| 2026-04-30 09:08 | 49.10185 | 10.50533 | 35446 ft | 453 kts | 143° |
| 2026-04-30 09:09 | 49.04761 | 10.55455 | 35441 ft | 454 kts | 143° |
| 2026-04-30 09:09 | 48.99337 | 10.60374 | 35455 ft | 453 kts | 143° |
| 2026-04-30 09:10 | 48.93907 | 10.65281 | 35443 ft | 454 kts | 143° |
| 2026-04-30 09:10 | 48.88506 | 10.70141 | 35435 ft | 454 kts | 143° |
| 2026-04-30 09:11 | 48.83077 | 10.75049 | 35420 ft | 452 kts | 140° |
| 2026-04-30 09:11 | 48.78444 | 10.81236 | 35424 ft | 439 kts | 126° |
| 2026-04-30 09:12 | 48.74364 | 10.88141 | 35402 ft | 440 kts | 126° |
| 2026-04-30 09:12 | 48.70252 | 10.95028 | 35424 ft | 441 kts | 126° |
| 2026-04-30 09:13 | 48.66124 | 11.01919 | 35410 ft | 442 kts | 126° |
| 2026-04-30 09:13 | 48.61989 | 11.08795 | 35407 ft | 442 kts | 126° |
| 2026-04-30 09:14 | 48.57852 | 11.15668 | 35403 ft | 442 kts | 126° |
| 2026-04-30 09:14 | 48.53707 | 11.22545 | 35403 ft | 443 kts | 126° |
| 2026-04-30 09:15 | 48.49554 | 11.29412 | 35375 ft | 443 kts | 126° |
| 2026-04-30 09:15 | 48.45389 | 11.36279 | 35394 ft | 445 kts | 126° |
| 2026-04-30 09:16 | 48.41207 | 11.43152 | 35387 ft | 445 kts | 126° |
| 2026-04-30 09:16 | 48.37018 | 11.50027 | 35399 ft | 446 kts | 126° |
| 2026-04-30 09:17 | 48.32822 | 11.56897 | 35400 ft | 446 kts | 126° |
| 2026-04-30 09:17 | 48.28615 | 11.63752 | 35398 ft | 446 kts | 127° |
| 2026-04-30 09:18 | 48.24320 | 11.70523 | 35415 ft | 449 kts | 129° |
| 2026-04-30 09:18 | 48.19713 | 11.76903 | 35406 ft | 452 kts | 132° |
| 2026-04-30 09:19 | 48.14989 | 11.83139 | 35400 ft | 452 kts | 132° |
| 2026-04-30 09:19 | 48.10308 | 11.89430 | 35395 ft | 452 kts | 131° |
| 2026-04-30 09:20 | 48.05677 | 11.95776 | 35386 ft | 452 kts | 131° |
| 2026-04-30 09:20 | 48.01049 | 12.02134 | 35400 ft | 453 kts | 131° |
| 2026-04-30 09:21 | 47.96390 | 12.08483 | 35381 ft | 454 kts | 131° |
| 2026-04-30 09:21 | 47.91738 | 12.14782 | 35371 ft | 455 kts | 131° |
| 2026-04-30 09:22 | 47.87047 | 12.21113 | 35367 ft | 455 kts | 131° |
| 2026-04-30 09:22 | 47.82320 | 12.27481 | 35368 ft | 455 kts | 132° |
| 2026-04-30 09:23 | 47.77622 | 12.33801 | 35353 ft | 455 kts | 131° |
| 2026-04-30 09:23 | 47.72925 | 12.40119 | 35338 ft | 455 kts | 132° |
| 2026-04-30 09:24 | 47.68210 | 12.46426 | 35332 ft | 457 kts | 132° |
| 2026-04-30 09:24 | 47.63477 | 12.52726 | 35338 ft | 458 kts | 133° |
| 2026-04-30 09:25 | 47.58798 | 12.59097 | 35326 ft | 456 kts | 130° |
| 2026-04-30 09:25 | 47.54275 | 12.65591 | 35355 ft | 456 kts | 130° |
| 2026-04-30 09:26 | 47.49719 | 12.72141 | 35322 ft | 457 kts | 131° |
| 2026-04-30 09:26 | 47.45121 | 12.78642 | 35302 ft | 458 kts | 131° |
| 2026-04-30 09:27 | 47.40494 | 12.85123 | 35288 ft | 459 kts | 131° |
| 2026-04-30 09:27 | 47.35864 | 12.91602 | 35286 ft | 459 kts | 131° |
| 2026-04-30 09:28 | 47.31229 | 12.98087 | 35302 ft | 460 kts | 131° |
| 2026-04-30 09:28 | 47.26586 | 13.04567 | 35292 ft | 460 kts | 132° |
| 2026-04-30 09:29 | 47.21921 | 13.11048 | 35280 ft | 462 kts | 132° |
| 2026-04-30 09:29 | 47.17243 | 13.17534 | 35281 ft | 463 kts | 132° |
| 2026-04-30 09:30 | 47.12553 | 13.24025 | 35284 ft | 463 kts | 132° |
| 2026-04-30 09:30 | 47.07853 | 13.30503 | 35306 ft | 464 kts | 133° |
| 2026-04-30 09:31 | 47.03135 | 13.36991 | 35305 ft | 465 kts | 133° |
| 2026-04-30 09:31 | 46.98412 | 13.43471 | 35288 ft | 465 kts | 133° |
| 2026-04-30 09:32 | 46.93679 | 13.49965 | 35296 ft | 467 kts | 133° |
| 2026-04-30 09:32 | 46.88933 | 13.56459 | 35311 ft | 467 kts | 133° |
| 2026-04-30 09:33 | 46.84174 | 13.62945 | 35333 ft | 468 kts | 134° |
| 2026-04-30 09:33 | 46.79400 | 13.69421 | 35342 ft | 468 kts | 134° |
| 2026-04-30 09:34 | 46.74650 | 13.75848 | 35327 ft | 469 kts | 134° |
| 2026-04-30 09:34 | 46.69858 | 13.82333 | 35341 ft | 470 kts | 134° |
| 2026-04-30 09:35 | 46.65061 | 13.88815 | 35342 ft | 471 kts | 134° |
| 2026-04-30 09:35 | 46.60257 | 13.95294 | 35365 ft | 472 kts | 134° |
| 2026-04-30 09:36 | 46.55431 | 14.01766 | 35374 ft | 472 kts | 135° |
| 2026-04-30 09:36 | 46.50593 | 14.08229 | 35379 ft | 473 kts | 135° |
| 2026-04-30 09:37 | 46.45750 | 14.14687 | 35378 ft | 473 kts | 135° |
| 2026-04-30 09:37 | 46.40897 | 14.21154 | 35392 ft | 474 kts | 135° |
| 2026-04-30 09:38 | 46.36037 | 14.27625 | 35377 ft | 475 kts | 135° |
| 2026-04-30 09:38 | 46.31163 | 14.34089 | 35376 ft | 475 kts | 135° |
| 2026-04-30 09:39 | 46.26275 | 14.40545 | 35371 ft | 476 kts | 136° |
| 2026-04-30 09:39 | 46.22206 | 14.45904 | 35372 ft | 476 kts | 136° |
| 2026-04-30 09:40 | 46.17306 | 14.52359 | 35393 ft | 477 kts | 136° |
| 2026-04-30 09:40 | 46.12391 | 14.58811 | 35380 ft | 478 kts | 136° |
| 2026-04-30 09:41 | 46.07467 | 14.65263 | 35380 ft | 479 kts | 136° |
| 2026-04-30 09:41 | 46.02528 | 14.71709 | 35382 ft | 479 kts | 136° |
| 2026-04-30 09:42 | 45.97582 | 14.78144 | 35366 ft | 480 kts | 137° |
| 2026-04-30 09:42 | 45.92626 | 14.84584 | 35395 ft | 481 kts | 137° |
| 2026-04-30 09:43 | 45.87657 | 14.91022 | 35397 ft | 481 kts | 137° |
| 2026-04-30 09:43 | 45.82680 | 14.97446 | 35407 ft | 481 kts | 137° |
| 2026-04-30 09:44 | 45.77703 | 15.03866 | 35404 ft | 481 kts | 137° |
| 2026-04-30 09:44 | 45.72717 | 15.10278 | 35431 ft | 482 kts | 138° |
| 2026-04-30 09:45 | 45.67726 | 15.16682 | 35418 ft | 482 kts | 138° |
| 2026-04-30 09:45 | 45.62725 | 15.23077 | 35418 ft | 482 kts | 138° |
| 2026-04-30 09:46 | 45.57726 | 15.29466 | 35412 ft | 482 kts | 138° |
| 2026-04-30 09:46 | 45.52736 | 15.35860 | 35396 ft | 483 kts | 138° |
| 2026-04-30 09:47 | 45.47742 | 15.42271 | 35392 ft | 483 kts | 138° |
| 2026-04-30 09:47 | 45.42735 | 15.48672 | 35391 ft | 484 kts | 138° |
| 2026-04-30 09:48 | 45.37719 | 15.55065 | 35397 ft | 484 kts | 138° |
| 2026-04-30 09:48 | 45.32728 | 15.61401 | 35393 ft | 484 kts | 138° |
| 2026-04-30 09:49 | 45.27701 | 15.67776 | 35394 ft | 485 kts | 139° |
| 2026-04-30 09:49 | 45.22657 | 15.74155 | 35383 ft | 486 kts | 139° |
| 2026-04-30 09:50 | 45.17600 | 15.80520 | 35380 ft | 487 kts | 139° |
| 2026-04-30 09:50 | 45.12538 | 15.86904 | 35376 ft | 487 kts | 139° |
| 2026-04-30 09:51 | 45.07464 | 15.93271 | 35398 ft | 487 kts | 139° |
| 2026-04-30 09:51 | 45.02384 | 15.99628 | 35370 ft | 488 kts | 140° |
| 2026-04-30 09:52 | 44.97292 | 16.05985 | 35369 ft | 489 kts | 140° |
| 2026-04-30 09:52 | 44.92189 | 16.12338 | 35358 ft | 489 kts | 140° |
| 2026-04-30 09:53 | 44.87081 | 16.18690 | 35371 ft | 490 kts | 140° |
| 2026-04-30 09:53 | 44.81968 | 16.25035 | 35359 ft | 490 kts | 140° |
| 2026-04-30 09:54 | 44.76847 | 16.31361 | 35339 ft | 490 kts | 140° |
| 2026-04-30 09:54 | 44.71712 | 16.37692 | 35333 ft | 491 kts | 140° |
| 2026-04-30 09:55 | 44.66573 | 16.44023 | 35333 ft | 491 kts | 140° |
| 2026-04-30 09:55 | 44.61431 | 16.50355 | 35332 ft | 492 kts | 141° |
| 2026-04-30 09:56 | 44.56273 | 16.56666 | 35330 ft | 492 kts | 141° |
| 2026-04-30 09:56 | 44.51111 | 16.62972 | 35301 ft | 493 kts | 141° |
| 2026-04-30 09:57 | 44.45933 | 16.69275 | 35293 ft | 493 kts | 141° |
| 2026-04-30 09:57 | 44.40788 | 16.75536 | 35324 ft | 494 kts | 141° |
| 2026-04-30 09:58 | 44.35603 | 16.81831 | 35308 ft | 494 kts | 141° |
| 2026-04-30 09:58 | 44.30410 | 16.88102 | 35294 ft | 494 kts | 141° |
| 2026-04-30 09:59 | 44.20005 | 17.00635 | 35303 ft | 494 kts | 142° |
| 2026-04-30 10:00 | 44.12194 | 17.10009 | 35288 ft | 494 kts | 142° |
| 2026-04-30 10:01 | 44.04374 | 17.19353 | 35249 ft | 494 kts | 142° |
| 2026-04-30 10:02 | 43.96538 | 17.28702 | 35251 ft | 495 kts | 143° |
| 2026-04-30 10:02 | 43.91313 | 17.34920 | 35260 ft | 495 kts | 143° |
| 2026-04-30 10:03 | 43.86081 | 17.41125 | 35246 ft | 495 kts | 143° |
| 2026-04-30 10:03 | 43.80835 | 17.47314 | 35223 ft | 495 kts | 143° |
| 2026-04-30 10:04 | 43.75606 | 17.53442 | 35213 ft | 495 kts | 147° |
| 2026-04-30 10:04 | 43.69963 | 17.58815 | 35204 ft | 492 kts | 150° |
| 2026-04-30 10:05 | 43.64280 | 17.64088 | 35214 ft | 492 kts | 150° |
| 2026-04-30 10:05 | 43.58595 | 17.69375 | 35175 ft | 493 kts | 151° |
| 2026-04-30 10:06 | 43.52900 | 17.74653 | 35201 ft | 495 kts | 152° |
| 2026-04-30 10:06 | 43.47180 | 17.79938 | 35204 ft | 495 kts | 152° |
| 2026-04-30 10:07 | 43.41466 | 17.85211 | 35151 ft | 495 kts | 152° |
| 2026-04-30 10:07 | 43.35737 | 17.90484 | 35162 ft | 496 kts | 152° |
| 2026-04-30 10:08 | 43.29997 | 17.95744 | 35167 ft | 496 kts | 152° |
| 2026-04-30 10:08 | 43.24265 | 18.00994 | 35171 ft | 496 kts | 152° |
| 2026-04-30 10:09 | 43.18526 | 18.06235 | 35175 ft | 495 kts | 152° |
| 2026-04-30 10:09 | 43.12788 | 18.11470 | 35142 ft | 496 kts | 153° |
| 2026-04-30 10:10 | 43.07035 | 18.16699 | 35155 ft | 497 kts | 153° |
| 2026-04-30 10:10 | 43.01269 | 18.21931 | 35165 ft | 498 kts | 153° |
| 2026-04-30 10:11 | 42.95496 | 18.27153 | 35159 ft | 498 kts | 153° |
| 2026-04-30 10:11 | 42.89718 | 18.32372 | 35145 ft | 498 kts | 153° |
| 2026-04-30 10:12 | 42.83974 | 18.37542 | 35126 ft | 498 kts | 153° |
| 2026-04-30 10:12 | 42.78184 | 18.42745 | 35126 ft | 498 kts | 153° |
| 2026-04-30 10:13 | 42.72397 | 18.47941 | 35140 ft | 498 kts | 153° |
| 2026-04-30 10:13 | 42.66616 | 18.53124 | 35122 ft | 498 kts | 153° |
| 2026-04-30 10:14 | 42.60841 | 18.58275 | 35149 ft | 497 kts | 153° |
| 2026-04-30 10:14 | 42.52168 | 18.65974 | 35142 ft | 496 kts | 153° |
| 2026-04-30 10:15 | 42.46395 | 18.71105 | 35115 ft | 496 kts | 153° |
| 2026-04-30 10:15 | 42.40621 | 18.76225 | 35129 ft | 496 kts | 153° |
| 2026-04-30 10:16 | 42.34851 | 18.81334 | 35136 ft | 496 kts | 153° |
| 2026-04-30 10:17 | 42.26191 | 18.88961 | 35139 ft | 495 kts | 153° |
| 2026-04-30 10:17 | 42.17529 | 18.96573 | 35111 ft | 495 kts | 153° |
| 2026-04-30 10:18 | 42.11757 | 19.01641 | 35111 ft | 495 kts | 153° |
| 2026-04-30 10:19 | 42.03093 | 19.09217 | 35110 ft | 495 kts | 153° |
| 2026-04-30 10:19 | 41.97314 | 19.14239 | 35105 ft | 494 kts | 153° |
| 2026-04-30 10:20 | 41.91577 | 19.19217 | 35109 ft | 494 kts | 153° |
| 2026-04-30 10:20 | 41.82925 | 19.26728 | 35118 ft | 493 kts | 153° |
| 2026-04-30 10:21 | 41.77208 | 19.31945 | 35066 ft | 498 kts | 144° |
| 2026-04-30 10:21 | 41.72211 | 19.38330 | 35100 ft | 500 kts | 140° |
| 2026-04-30 10:22 | 41.67232 | 19.44811 | 35109 ft | 499 kts | 140° |
| 2026-04-30 10:22 | 41.62250 | 19.51264 | 35117 ft | 498 kts | 140° |
| 2026-04-30 10:23 | 41.57271 | 19.57702 | 35116 ft | 498 kts | 140° |
| 2026-04-30 10:23 | 41.52298 | 19.64131 | 35106 ft | 498 kts | 140° |
| 2026-04-30 10:24 | 41.47325 | 19.70541 | 35116 ft | 496 kts | 140° |
| 2026-04-30 10:24 | 41.42363 | 19.76933 | 35125 ft | 496 kts | 140° |
| 2026-04-30 10:25 | 41.37403 | 19.83313 | 35128 ft | 496 kts | 140° |
| 2026-04-30 10:25 | 41.32430 | 19.89674 | 35113 ft | 496 kts | 140° |
| 2026-04-30 10:26 | 41.27458 | 19.96030 | 35103 ft | 496 kts | 140° |
| 2026-04-30 10:26 | 41.22512 | 20.02335 | 35069 ft | 496 kts | 140° |
| 2026-04-30 10:27 | 41.17500 | 20.08702 | 35075 ft | 495 kts | 140° |
| 2026-04-30 10:27 | 41.12555 | 20.14977 | 35076 ft | 495 kts | 140° |
| 2026-04-30 10:28 | 41.07578 | 20.21279 | 35088 ft | 495 kts | 140° |
| 2026-04-30 10:28 | 41.02602 | 20.27571 | 35085 ft | 494 kts | 140° |
| 2026-04-30 10:29 | 40.98435 | 20.32837 | 35088 ft | 494 kts | 140° |
| 2026-04-30 10:29 | 40.93459 | 20.39096 | 35077 ft | 493 kts | 140° |
| 2026-04-30 10:30 | 40.88486 | 20.45342 | 35075 ft | 493 kts | 140° |
| 2026-04-30 10:30 | 40.83543 | 20.51530 | 35071 ft | 493 kts | 140° |
| 2026-04-30 10:31 | 40.78569 | 20.57748 | 35067 ft | 492 kts | 140° |
| 2026-04-30 10:31 | 40.73595 | 20.63957 | 35051 ft | 492 kts | 140° |
| 2026-04-30 10:32 | 40.68627 | 20.70138 | 35038 ft | 490 kts | 140° |
| 2026-04-30 10:32 | 40.63674 | 20.76291 | 35041 ft | 489 kts | 140° |
| 2026-04-30 10:33 | 40.58724 | 20.82434 | 35048 ft | 488 kts | 140° |
| 2026-04-30 10:33 | 40.53780 | 20.88541 | 35040 ft | 487 kts | 140° |
| 2026-04-30 10:34 | 40.48842 | 20.94630 | 35043 ft | 487 kts | 140° |
| 2026-04-30 10:34 | 40.43857 | 21.00621 | 35023 ft | 485 kts | 142° |
| 2026-04-30 10:35 | 40.38776 | 21.06427 | 35038 ft | 483 kts | 142° |
| 2026-04-30 10:35 | 40.33726 | 21.12143 | 35037 ft | 483 kts | 142° |
| 2026-04-30 10:36 | 40.28664 | 21.17927 | 35043 ft | 482 kts | 142° |
| 2026-04-30 10:36 | 40.23624 | 21.23722 | 35042 ft | 482 kts | 142° |
| 2026-04-30 10:37 | 40.18589 | 21.29511 | 35013 ft | 481 kts | 142° |
| 2026-04-30 10:37 | 40.13545 | 21.35264 | 35021 ft | 481 kts | 142° |
| 2026-04-30 10:38 | 40.08505 | 21.40988 | 35028 ft | 480 kts | 142° |
| 2026-04-30 10:38 | 40.03462 | 21.46720 | 35032 ft | 480 kts | 142° |
| 2026-04-30 10:39 | 39.98426 | 21.52438 | 35032 ft | 480 kts | 142° |
| 2026-04-30 10:39 | 39.93388 | 21.58140 | 35031 ft | 480 kts | 142° |
| 2026-04-30 10:40 | 39.88347 | 21.63840 | 35021 ft | 480 kts | 142° |
| 2026-04-30 10:40 | 39.83310 | 21.69527 | 35035 ft | 479 kts | 142° |
| 2026-04-30 10:41 | 39.78271 | 21.75208 | 35034 ft | 479 kts | 142° |
| 2026-04-30 10:41 | 39.73221 | 21.80863 | 35038 ft | 479 kts | 142° |
| 2026-04-30 10:42 | 39.68165 | 21.86506 | 35032 ft | 479 kts | 142° |
| 2026-04-30 10:42 | 39.63115 | 21.92148 | 35030 ft | 479 kts | 142° |
| 2026-04-30 10:43 | 39.58062 | 21.97794 | 35034 ft | 479 kts | 142° |
| 2026-04-30 10:43 | 39.53040 | 22.03396 | 35037 ft | 479 kts | 142° |
| 2026-04-30 10:44 | 39.47988 | 22.09022 | 35038 ft | 479 kts | 142° |
| 2026-04-30 10:44 | 39.42934 | 22.14633 | 35036 ft | 479 kts | 143° |
| 2026-04-30 10:45 | 39.37869 | 22.20241 | 35023 ft | 479 kts | 143° |
| 2026-04-30 10:45 | 39.32807 | 22.25839 | 35031 ft | 479 kts | 143° |
| 2026-04-30 10:46 | 39.27739 | 22.31427 | 35030 ft | 479 kts | 143° |
| 2026-04-30 10:46 | 39.22667 | 22.37008 | 35040 ft | 479 kts | 143° |
| 2026-04-30 10:47 | 39.17594 | 22.42580 | 35039 ft | 479 kts | 143° |
| 2026-04-30 10:47 | 39.12519 | 22.48140 | 35041 ft | 479 kts | 143° |
| 2026-04-30 10:48 | 39.07450 | 22.53688 | 35052 ft | 478 kts | 143° |
| 2026-04-30 10:48 | 39.02384 | 22.59225 | 35064 ft | 477 kts | 143° |
| 2026-04-30 10:49 | 38.97318 | 22.64743 | 35064 ft | 477 kts | 143° |
| 2026-04-30 10:49 | 38.92251 | 22.70252 | 35061 ft | 477 kts | 143° |
| 2026-04-30 10:50 | 38.87193 | 22.75751 | 35063 ft | 477 kts | 143° |
| 2026-04-30 10:50 | 38.82133 | 22.81245 | 35045 ft | 476 kts | 143° |
| 2026-04-30 10:51 | 38.77068 | 22.86720 | 35055 ft | 476 kts | 143° |
| 2026-04-30 10:51 | 38.72005 | 22.92183 | 35059 ft | 476 kts | 143° |
| 2026-04-30 10:52 | 38.66941 | 22.97640 | 35060 ft | 476 kts | 143° |
| 2026-04-30 10:52 | 38.61873 | 23.03081 | 35059 ft | 475 kts | 143° |
| 2026-04-30 10:53 | 38.56809 | 23.08511 | 35058 ft | 475 kts | 143° |
| 2026-04-30 10:53 | 38.51783 | 23.13909 | 35047 ft | 475 kts | 144° |
| 2026-04-30 10:54 | 38.46715 | 23.19327 | 35050 ft | 475 kts | 144° |
| 2026-04-30 10:54 | 38.41645 | 23.24738 | 35053 ft | 475 kts | 144° |
| 2026-04-30 10:55 | 38.36536 | 23.30184 | 35055 ft | 475 kts | 144° |
| 2026-04-30 10:55 | 38.31493 | 23.35541 | 35056 ft | 475 kts | 144° |
| 2026-04-30 10:56 | 38.26413 | 23.40923 | 35056 ft | 475 kts | 144° |
| 2026-04-30 10:56 | 38.21331 | 23.46310 | 35043 ft | 475 kts | 144° |
| 2026-04-30 10:57 | 38.16250 | 23.51685 | 35037 ft | 476 kts | 144° |
| 2026-04-30 10:57 | 38.11157 | 23.57060 | 35037 ft | 476 kts | 144° |
| 2026-04-30 10:58 | 38.05812 | 23.61932 | 35039 ft | 472 kts | 150° |
| 2026-04-30 10:58 | 38.00363 | 23.66591 | 35026 ft | 472 kts | 150° |
| 2026-04-30 10:59 | 37.94901 | 23.71223 | 35049 ft | 473 kts | 150° |
| 2026-04-30 10:59 | 37.89442 | 23.75884 | 35043 ft | 473 kts | 150° |
| 2026-04-30 11:00 | 37.83991 | 23.80563 | 35048 ft | 474 kts | 150° |
| 2026-04-30 11:00 | 37.78528 | 23.85232 | 35052 ft | 474 kts | 150° |
| 2026-04-30 11:01 | 37.73062 | 23.89884 | 35043 ft | 474 kts | 150° |
| 2026-04-30 11:01 | 37.67629 | 23.94506 | 35050 ft | 474 kts | 150° |
| 2026-04-30 11:02 | 37.62155 | 23.99150 | 35055 ft | 474 kts | 150° |
| 2026-04-30 11:02 | 37.56679 | 24.03798 | 35059 ft | 474 kts | 150° |
| 2026-04-30 11:03 | 37.51204 | 24.08440 | 35053 ft | 475 kts | 150° |
| 2026-04-30 11:04 | 37.42971 | 24.15382 | 35044 ft | 475 kts | 150° |
| 2026-04-30 11:04 | 37.37476 | 24.20015 | 35049 ft | 475 kts | 150° |
| 2026-04-30 11:05 | 37.31977 | 24.24637 | 35051 ft | 476 kts | 150° |
| 2026-04-30 11:05 | 37.26471 | 24.29252 | 35055 ft | 476 kts | 150° |
| 2026-04-30 11:06 | 37.20972 | 24.33866 | 35055 ft | 476 kts | 150° |
| 2026-04-30 11:06 | 37.15471 | 24.38473 | 35052 ft | 475 kts | 150° |
| 2026-04-30 11:07 | 37.09965 | 24.43056 | 35046 ft | 475 kts | 150° |
| 2026-04-30 11:07 | 37.04453 | 24.47643 | 35048 ft | 476 kts | 150° |
| 2026-04-30 11:08 | 36.98947 | 24.52230 | 35050 ft | 476 kts | 150° |
| 2026-04-30 11:08 | 36.93437 | 24.56819 | 35031 ft | 476 kts | 150° |
| 2026-04-30 11:09 | 36.87927 | 24.61388 | 35053 ft | 475 kts | 150° |
| 2026-04-30 11:09 | 36.82423 | 24.65948 | 35057 ft | 475 kts | 150° |
| 2026-04-30 11:10 | 36.76924 | 24.70496 | 35062 ft | 474 kts | 151° |
| 2026-04-30 11:10 | 36.71420 | 24.75034 | 35060 ft | 474 kts | 151° |
| 2026-04-30 11:11 | 36.65918 | 24.79555 | 35052 ft | 474 kts | 151° |
| 2026-04-30 11:11 | 36.60419 | 24.84068 | 35056 ft | 473 kts | 151° |
| 2026-04-30 11:11 | 36.57675 | 24.86315 | 34753 ft | 471 kts | 151° |
| 2026-04-30 11:12 | 36.54945 | 24.88550 | 34057 ft | 470 kts | 150° |
| 2026-04-30 11:12 | 36.52215 | 24.90785 | 33239 ft | 470 kts | 150° |
| 2026-04-30 11:12 | 36.49482 | 24.93021 | 32335 ft | 472 kts | 150° |
| 2026-04-30 11:12 | 36.46730 | 24.95271 | 31393 ft | 475 kts | 150° |
| 2026-04-30 11:13 | 36.43960 | 24.97533 | 30468 ft | 478 kts | 150° |
| 2026-04-30 11:13 | 36.41187 | 24.99800 | 29756 ft | 475 kts | 150° |
| 2026-04-30 11:13 | 36.38443 | 25.02043 | 29025 ft | 471 kts | 150° |
| 2026-04-30 11:13 | 36.35718 | 25.04268 | 28350 ft | 466 kts | 150° |
| 2026-04-30 11:14 | 36.33022 | 25.06468 | 27730 ft | 461 kts | 150° |
| 2026-04-30 11:14 | 36.30357 | 25.08643 | 27135 ft | 456 kts | 150° |
| 2026-04-30 11:14 | 36.27723 | 25.10792 | 26558 ft | 451 kts | 150° |
| 2026-04-30 11:14 | 36.25113 | 25.12916 | 25997 ft | 446 kts | 149° |
| 2026-04-30 11:15 | 36.22529 | 25.15012 | 25445 ft | 442 kts | 149° |
| 2026-04-30 11:15 | 36.19972 | 25.17080 | 24905 ft | 437 kts | 149° |
| 2026-04-30 11:15 | 36.17438 | 25.19125 | 24374 ft | 433 kts | 149° |
| 2026-04-30 11:15 | 36.14933 | 25.21149 | 23856 ft | 428 kts | 149° |
| 2026-04-30 11:16 | 36.12450 | 25.23159 | 23305 ft | 424 kts | 149° |
| 2026-04-30 11:16 | 36.10024 | 25.25124 | 22713 ft | 421 kts | 149° |
| 2026-04-30 11:16 | 36.07583 | 25.27098 | 22159 ft | 418 kts | 149° |
| 2026-04-30 11:16 | 36.05161 | 25.29052 | 21625 ft | 415 kts | 149° |
| 2026-04-30 11:17 | 36.02752 | 25.30994 | 21111 ft | 412 kts | 149° |
| 2026-04-30 11:17 | 36.00371 | 25.32916 | 20420 ft | 405 kts | 149° |
| 2026-04-30 11:17 | 35.97916 | 25.34537 | 19495 ft | 397 kts | 162° |
| 2026-04-30 11:17 | 35.96134 | 25.35131 | 18903 ft | 390 kts | 173° |
| 2026-04-30 11:18 | 35.93465 | 25.35611 | 17941 ft | 386 kts | 175° |
| 2026-04-30 11:18 | 35.88242 | 25.36483 | 16106 ft | 376 kts | 175° |
| 2026-04-30 11:18 | 35.85668 | 25.36903 | 15251 ft | 370 kts | 175° |
| 2026-04-30 11:19 | 35.83128 | 25.37316 | 14394 ft | 366 kts | 175° |
| 2026-04-30 11:19 | 35.80618 | 25.37728 | 13543 ft | 361 kts | 175° |
| 2026-04-30 11:19 | 35.78145 | 25.38136 | 12637 ft | 356 kts | 175° |
| 2026-04-30 11:19 | 35.75707 | 25.38542 | 11760 ft | 351 kts | 174° |
| 2026-04-30 11:20 | 35.73338 | 25.38941 | 11422 ft | 331 kts | 174° |
| 2026-04-30 11:20 | 35.71140 | 25.39315 | 11219 ft | 309 kts | 175° |
| 2026-04-30 11:20 | 35.69041 | 25.39667 | 10727 ft | 301 kts | 175° |
| 2026-04-30 11:20 | 35.66983 | 25.40007 | 10141 ft | 297 kts | 175° |
| 2026-04-30 11:21 | 35.64943 | 25.40340 | 9502 ft | 293 kts | 174° |
| 2026-04-30 11:21 | 35.62934 | 25.40668 | 8856 ft | 290 kts | 174° |
| 2026-04-30 11:21 | 35.60949 | 25.40993 | 8215 ft | 286 kts | 174° |
| 2026-04-30 11:21 | 35.58992 | 25.41314 | 7583 ft | 282 kts | 174° |
| 2026-04-30 11:22 | 35.57061 | 25.41631 | 6962 ft | 278 kts | 173° |
| 2026-04-30 11:22 | 35.55153 | 25.41946 | 6342 ft | 274 kts | 173° |
| 2026-04-30 11:22 | 35.53258 | 25.42261 | 5892 ft | 274 kts | 173° |
| 2026-04-30 11:22 | 35.51376 | 25.42572 | 5500 ft | 272 kts | 173° |
| 2026-04-30 11:23 | 35.49511 | 25.42879 | 5229 ft | 271 kts | 173° |
| 2026-04-30 11:23 | 35.47657 | 25.43186 | 5023 ft | 264 kts | 173° |
| 2026-04-30 11:23 | 35.44148 | 25.43765 | 4631 ft | 245 kts | 173° |
| 2026-04-30 11:24 | 35.42488 | 25.44037 | 4429 ft | 237 kts | 173° |
| 2026-04-30 11:24 | 35.40882 | 25.44299 | 4226 ft | 229 kts | 173° |
| 2026-04-30 11:24 | 35.39313 | 25.44554 | 4031 ft | 226 kts | 173° |
| 2026-04-30 11:25 | 35.36332 | 25.44083 | 3632 ft | 220 kts | 217° |
| 2026-04-30 11:25 | 35.35370 | 25.42683 | 3442 ft | 214 kts | 244° |
| 2026-04-30 11:25 | 35.34140 | 25.39460 | 3042 ft | 204 kts | 244° |
| 2026-04-30 11:26 | 35.32969 | 25.36338 | 2644 ft | 200 kts | 253° |
| 2026-04-30 11:26 | 35.32809 | 25.34711 | 2484 ft | 192 kts | 274° |
| 2026-04-30 11:26 | 35.32927 | 25.33113 | 2275 ft | 186 kts | 275° |
| 2026-04-30 11:27 | 35.33036 | 25.31560 | 2083 ft | 179 kts | 275° |
| 2026-04-30 11:27 | 35.33136 | 25.30102 | 2021 ft | 162 kts | 275° |
| 2026-04-30 11:27 | 35.33227 | 25.28777 | 1922 ft | 155 kts | 275° |
| 2026-04-30 11:27 | 35.33318 | 25.27461 | 1650 ft | 154 kts | 275° |
| 2026-04-30 11:28 | 35.33491 | 25.24914 | 1095 ft | 146 kts | 277° |
| 2026-04-30 11:28 | 35.33587 | 25.23685 | 913 ft | 145 kts | 277° |
| 2026-04-30 11:28 | 35.33668 | 25.22460 | 648 ft | 144 kts | 276° |
| 2026-04-30 11:29 | 35.33745 | 25.21250 | 473 ft | 144 kts | 278° |
| 2026-04-30 11:29 | 35.33838 | 25.20036 | 279 ft | 143 kts | 277° |
| 2026-04-30 11:29 | 35.33991 | 25.17806 | 93 ft | 97 kts | 275° |
| 2026-04-30 11:30 | 35.34004 | 25.17131 | 91 ft | 12 kts | 245° |
| 2026-04-30 11:30 | 35.33966 | 25.17046 | 90 ft | 10 kts | 229° |
| 2026-04-30 11:30 | 35.33943 | 25.17073 | 92 ft | 4 kts | 100° |
| 2026-04-30 11:31 | 35.33940 | 25.17112 | 91 ft | 7 kts | 93° |
| 2026-04-30 11:31 | 35.33935 | 25.17184 | 90 ft | 8 kts | 95° |
| 2026-04-30 11:31 | 35.33930 | 25.17245 | 91 ft | 6 kts | 95° |
| 2026-04-30 11:31 | 35.33926 | 25.17294 | 93 ft | 5 kts | 95° |
| 2026-04-30 11:32 | 35.33924 | 25.17332 | 91 ft | 4 kts | 94° |
| 2026-04-30 11:32 | 35.33921 | 25.17370 | 91 ft | 7 kts | 95° |
| 2026-04-30 11:32 | 35.33917 | 25.17435 | 91 ft | 6 kts | 95° |
| 2026-04-30 11:33 | 35.33914 | 25.17473 | 91 ft | 1 kts | 95° |
| 2026-04-30 11:33 | 35.33913 | 25.17485 | 91 ft | 3 kts | 95° |
| 2026-04-30 11:33 | 35.33895 | 25.17502 | 94 ft | 4 kts | 174° |
| 2026-04-30 11:33 | 35.33867 | 25.17499 | 93 ft | 4 kts | 185° |
| 2026-04-30 11:34 | 35.33841 | 25.17497 | 94 ft | 4 kts | 185° |
| 2026-04-30 11:34 | 35.33818 | 25.17494 | 92 ft | 3 kts | 185° |
| 2026-04-30 11:34 | 35.33798 | 25.17492 | 91 ft | 3 kts | 185° |
| 2026-04-30 11:34 | 35.33780 | 25.17490 | 93 ft | 2 kts | 189° |
| 2026-04-30 11:35 | 35.33768 | 25.17475 | 92 ft | 4 kts | 237° |
| 2026-04-30 11:35 | 35.33767 | 25.17440 | 91 ft | 4 kts | 274° |
| 2026-04-30 11:35 | 35.33768 | 25.17417 | 91 ft | 1 kts | 275° |
| 2026-04-30 11:35 | 35.33768 | 25.17411 | 93 ft | 0 kts | 275° |